Terminal Aerodrome Forecast
Issued by NWS Green Bay, WI

Home | Current Version | Previous Version | Graphics & Text | Print | Product List | Glossary On
Versions: 1 2 3 4 5 6 7 8 9 10 11 12 13 14 15 16 17 18 19 20 21 22 23 24 25 26 27 28 29 30 31
000
FTUS43 KGRB 192300
TAFGRB
TAF
KGRB 192323Z 2000/2024 20003KT P6SM SCT025
      TEMPO 2001/2003 BKN025
     FM200300 20003KT P6SM BKN022
     FM200800 20003KT 5SM BR OVC016
     FM201500 18004KT P6SM OVC020=

USA.gov is the U.S. government's official web portal to all federal, state and local government web resources and services.